createdAt,value
2022-09-17T00:01:23.637Z,10.80
2022-09-17T00:03:56.306Z,10.90
2022-09-17T00:06:24.805Z,11.00
2022-09-17T00:08:52.487Z,11.00
2022-09-17T00:11:24.639Z,11.00
2022-09-17T00:13:52.815Z,11.00
2022-09-17T00:16:26.717Z,11.00
2022-09-17T00:18:54.168Z,11.00
2022-09-17T00:21:21.865Z,10.90
2022-09-17T00:23:49.078Z,10.90
2022-09-17T00:26:16.180Z,10.90
2022-09-17T00:28:45.480Z,10.80
2022-09-17T00:31:12.542Z,10.90
2022-09-17T00:33:39.475Z,10.80
2022-09-17T00:36:07.165Z,10.90
2022-09-17T00:38:34.858Z,10.70
2022-09-17T00:41:02.297Z,10.70
2022-09-17T00:43:43.386Z,10.70
2022-09-17T00:46:29.020Z,10.60
2022-09-17T00:48:59.910Z,10.60
2022-09-17T00:51:34.753Z,10.60
2022-09-17T00:54:04.252Z,10.60
2022-09-17T00:56:35.137Z,10.60
2022-09-17T00:59:03.599Z,10.60
2022-09-17T01:01:31.777Z,10.60
2022-09-17T01:03:58.836Z,10.70
2022-09-17T01:07:17.774Z,10.60
2022-09-17T01:09:57.088Z,10.70
2022-09-17T01:12:54.576Z,10.80
2022-09-17T01:15:47.824Z,10.90
2022-09-17T01:18:25.066Z,10.80
2022-09-17T01:21:13.423Z,10.70
2022-09-17T01:23:59.065Z,10.80
2022-09-17T01:27:03.773Z,10.80
2022-09-17T01:29:55.688Z,10.80
2022-09-17T01:32:43.033Z,10.80
2022-09-17T01:35:19.601Z,10.90
2022-09-17T01:38:13.972Z,10.90
2022-09-17T01:41:08.785Z,10.90
2022-09-17T01:44:00.891Z,10.90
2022-09-17T01:46:49.877Z,10.90
2022-09-17T01:49:17.555Z,11.00
2022-09-17T01:51:48.584Z,11.00
2022-09-17T01:54:49.330Z,11.00
2022-09-17T01:57:38.100Z,11.10
2022-09-17T02:00:17.421Z,11.10
2022-09-17T02:03:14.954Z,11.10
2022-09-17T02:05:54.565Z,11.20
2022-09-17T02:08:31.703Z,11.10
2022-09-17T02:11:06.616Z,11.10
2022-09-17T02:13:47.480Z,11.10
2022-09-17T02:16:24.932Z,11.10
2022-09-17T02:19:08.716Z,11.10
2022-09-17T02:21:35.492Z,11.10
2022-09-17T02:24:31.423Z,11.20
2022-09-17T02:27:07.848Z,11.20
2022-09-17T02:29:37.536Z,11.20
2022-09-17T02:32:05.142Z,11.20
2022-09-17T02:34:32.653Z,11.30
2022-09-17T02:36:59.710Z,11.20
2022-09-17T02:39:28.331Z,11.30
2022-09-17T02:41:55.699Z,11.30
2022-09-17T02:44:37.699Z,11.30
2022-09-17T02:47:31.983Z,11.30
2022-09-17T02:50:20.159Z,11.30
2022-09-17T02:53:08.106Z,11.30
2022-09-17T02:56:04.170Z,11.20
2022-09-17T02:59:13.417Z,11.20
2022-09-17T03:01:47.927Z,11.10
2022-09-17T03:04:18.087Z,11.00
2022-09-17T03:06:48.802Z,10.90
2022-09-17T03:09:15.840Z,10.90
2022-09-17T03:11:42.907Z,10.80
2022-09-17T03:14:09.961Z,10.80
2022-09-17T03:16:36.918Z,10.70
2022-09-17T03:19:03.856Z,10.70
2022-09-17T03:21:31.356Z,10.70
2022-09-17T03:24:00.349Z,10.70
2022-09-17T03:26:27.710Z,10.70
2022-09-17T03:28:54.540Z,10.70
2022-09-17T03:31:21.503Z,10.60
2022-09-17T03:33:50.233Z,10.50
2022-09-17T03:36:17.190Z,10.50
2022-09-17T03:38:44.087Z,10.50
2022-09-17T03:41:11.470Z,10.50
2022-09-17T03:43:39.866Z,10.50
2022-09-17T03:46:06.803Z,10.40
2022-09-17T03:48:37.108Z,10.50
2022-09-17T03:51:04.460Z,10.50
2022-09-17T03:53:32.072Z,10.50
2022-09-17T03:56:03.213Z,10.50
2022-09-17T03:58:31.163Z,10.50
2022-09-17T04:00:58.304Z,10.40
2022-09-17T04:03:27.689Z,10.40
2022-09-17T04:05:55.393Z,10.40
2022-09-17T04:08:22.455Z,10.40
2022-09-17T04:10:49.453Z,10.40
2022-09-17T04:13:16.958Z,10.50
2022-09-17T04:15:44.551Z,10.50
2022-09-17T04:18:11.471Z,10.50
2022-09-17T04:20:38.824Z,10.40
2022-09-17T04:23:07.334Z,10.40
2022-09-17T04:25:34.367Z,10.30
2022-09-17T04:28:01.275Z,10.30
2022-09-17T04:30:28.220Z,10.20
2022-09-17T04:32:55.041Z,10.20
2022-09-17T04:35:22.153Z,10.20
2022-09-17T04:37:58.561Z,10.20
2022-09-17T04:40:26.969Z,10.20
2022-09-17T04:43:03.221Z,10.20
2022-09-17T04:45:33.492Z,10.20
2022-09-17T04:48:01.852Z,10.30
2022-09-17T04:50:29.025Z,10.30
2022-09-17T04:52:55.877Z,10.30
2022-09-17T04:55:22.707Z,10.30
2022-09-17T04:57:51.816Z,10.40
2022-09-17T05:00:20.536Z,10.40
2022-09-17T05:02:49.695Z,10.40
2022-09-17T05:05:17.809Z,10.40
2022-09-17T05:07:45.312Z,10.50
2022-09-17T05:10:14.242Z,10.50
2022-09-17T05:12:41.042Z,10.40
2022-09-17T05:15:08.323Z,10.40
2022-09-17T05:17:35.119Z,10.40
2022-09-17T05:20:02.083Z,10.40
2022-09-17T05:22:28.895Z,10.40
2022-09-17T05:24:55.673Z,10.40
2022-09-17T05:27:22.461Z,10.40
2022-09-17T05:29:49.324Z,10.50
2022-09-17T05:32:16.091Z,10.40
2022-09-17T05:34:42.867Z,10.40
2022-09-17T05:37:11.221Z,10.40
2022-09-17T05:39:38.155Z,10.40
2022-09-17T05:42:05.133Z,10.40
2022-09-17T05:44:32.008Z,10.50
2022-09-17T05:46:59.261Z,10.60
2022-09-17T05:49:26.154Z,10.60
2022-09-17T05:51:52.975Z,10.60
2022-09-17T05:54:19.812Z,10.60
2022-09-17T05:56:46.652Z,10.60
2022-09-17T05:59:14.753Z,10.60
2022-09-17T06:01:42.486Z,10.70
2022-09-17T06:04:09.767Z,10.70
2022-09-17T06:06:37.915Z,10.70
2022-09-17T06:09:06.441Z,10.70
2022-09-17T06:11:33.268Z,10.80
2022-09-17T06:14:00.518Z,10.80
2022-09-17T06:16:27.765Z,10.80
2022-09-17T06:18:54.975Z,10.80
2022-09-17T06:21:23.018Z,10.80
2022-09-17T06:23:52.841Z,10.80
2022-09-17T06:26:19.785Z,10.90
2022-09-17T06:28:46.641Z,10.90
2022-09-17T06:31:14.470Z,10.90
2022-09-17T06:33:41.559Z,10.80
2022-09-17T06:36:14.110Z,10.70
2022-09-17T06:38:42.271Z,10.70
2022-09-17T06:41:09.532Z,10.70
2022-09-17T06:43:36.360Z,10.80
2022-09-17T06:46:09.497Z,10.80
2022-09-17T06:48:37.450Z,10.80
2022-09-17T06:51:07.467Z,10.70
2022-09-17T06:53:36.723Z,10.80
2022-09-17T06:56:06.680Z,10.80
2022-09-17T06:58:37.627Z,10.70
2022-09-17T07:01:06.257Z,10.70
2022-09-17T07:03:34.209Z,10.80
2022-09-17T07:06:01.096Z,10.90
2022-09-17T07:08:28.120Z,11.10
2022-09-17T07:10:58.494Z,11.10
2022-09-17T07:13:26.150Z,11.10
2022-09-17T07:15:54.832Z,11.20
2022-09-17T07:18:23.354Z,11.30
2022-09-17T07:21:01.612Z,11.20
2022-09-17T07:23:31.534Z,11.20
2022-09-17T07:26:01.103Z,11.20
2022-09-17T07:28:28.862Z,11.20
2022-09-17T07:30:56.964Z,11.20
2022-09-17T07:33:26.710Z,11.30
2022-09-17T07:36:01.529Z,11.30
2022-09-17T07:38:29.910Z,11.40
2022-09-17T07:40:59.119Z,11.40
2022-09-17T07:43:30.655Z,11.50
2022-09-17T07:45:59.115Z,11.50
2022-09-17T07:48:26.670Z,11.60
2022-09-17T07:50:54.127Z,11.60
2022-09-17T07:53:22.529Z,11.60
2022-09-17T07:55:53.312Z,11.60
2022-09-17T07:58:24.559Z,11.60
2022-09-17T08:00:51.508Z,11.60
2022-09-17T08:03:18.556Z,11.70
2022-09-17T08:05:46.008Z,11.90
2022-09-17T08:08:13.676Z,12.10
2022-09-17T08:10:41.754Z,12.20
2022-09-17T08:13:08.765Z,12.20
2022-09-17T08:15:35.996Z,12.10
2022-09-17T08:18:02.877Z,12.20
2022-09-17T08:20:29.872Z,12.10
2022-09-17T08:23:01.124Z,12.20
2022-09-17T08:25:28.083Z,12.30
2022-09-17T08:27:56.663Z,12.50
2022-09-17T08:30:24.215Z,12.50
2022-09-17T08:32:51.107Z,12.70
2022-09-17T08:35:18.107Z,12.80
2022-09-17T08:37:45.203Z,12.80
2022-09-17T08:40:20.989Z,13.00
2022-09-17T08:43:00.340Z,13.20
2022-09-17T08:45:28.386Z,13.30
2022-09-17T08:48:02.953Z,13.40
2022-09-17T08:50:34.082Z,13.40
2022-09-17T08:53:28.797Z,13.20
2022-09-17T08:56:01.842Z,13.10
2022-09-17T08:58:59.428Z,13.10
2022-09-17T09:01:35.507Z,13.10
2022-09-17T09:04:24.761Z,13.20
2022-09-17T09:07:02.491Z,13.20
2022-09-17T09:09:36.081Z,13.10
2022-09-17T09:12:19.111Z,13.10
2022-09-17T09:14:54.261Z,13.30
2022-09-17T09:17:25.923Z,13.20
2022-09-17T09:19:54.052Z,13.00
2022-09-17T09:22:58.050Z,12.80
2022-09-17T09:25:27.261Z,12.70
2022-09-17T09:28:07.724Z,12.70
2022-09-17T09:31:06.892Z,12.60
2022-09-17T09:33:38.048Z,12.60
2022-09-17T09:36:12.885Z,12.50
2022-09-17T09:38:50.902Z,12.30
2022-09-17T09:41:31.714Z,12.40
2022-09-17T09:44:04.788Z,12.50
2022-09-17T09:47:20.267Z,12.50
2022-09-17T09:50:08.205Z,12.60
2022-09-17T09:52:47.370Z,12.70
2022-09-17T09:55:32.005Z,12.90
2022-09-17T09:58:16.817Z,13.20
2022-09-17T10:00:44.024Z,13.60
2022-09-17T10:03:21.336Z,13.90
2022-09-17T10:06:00.911Z,14.00
2022-09-17T10:08:29.853Z,14.00
2022-09-17T10:11:02.713Z,14.10
2022-09-17T10:13:32.773Z,14.30
2022-09-17T10:16:19.229Z,14.50
2022-09-17T10:18:51.450Z,14.50
2022-09-17T10:21:22.432Z,14.40
2022-09-17T10:23:53.621Z,14.40
2022-09-17T10:26:36.097Z,14.30
2022-09-17T10:29:05.683Z,14.40
2022-09-17T10:31:53.907Z,14.30
2022-09-17T10:34:26.801Z,14.20
2022-09-17T10:36:56.216Z,14.00
2022-09-17T10:39:36.407Z,14.00
2022-09-17T10:42:22.109Z,14.00
2022-09-17T10:44:57.460Z,13.90
2022-09-17T10:47:34.792Z,14.10
2022-09-17T10:50:05.788Z,14.20
2022-09-17T10:52:38.655Z,14.40
2022-09-17T10:55:26.796Z,14.40
2022-09-17T10:58:08.724Z,14.20
2022-09-17T11:00:44.591Z,14.00
2022-09-17T11:03:44.044Z,13.80
2022-09-17T11:06:25.858Z,13.90
2022-09-17T11:09:14.160Z,14.00
2022-09-17T11:12:14.876Z,14.00
2022-09-17T11:15:10.955Z,14.00
2022-09-17T11:17:53.213Z,14.10
2022-09-17T11:20:38.693Z,14.30
2022-09-17T11:23:40.286Z,14.40
2022-09-17T11:26:45.531Z,14.20
2022-09-17T11:29:35.526Z,14.00
2022-09-17T11:32:39.695Z,13.90
2022-09-17T11:35:16.163Z,14.00
2022-09-17T11:37:51.592Z,14.20
2022-09-17T11:40:37.333Z,14.50
2022-09-17T11:43:29.378Z,14.40
2022-09-17T11:46:18.388Z,14.40
2022-09-17T11:48:54.894Z,14.10
2022-09-17T11:51:38.570Z,14.10
2022-09-17T11:54:34.031Z,14.40
2022-09-17T11:57:11.279Z,14.40
2022-09-17T11:59:56.306Z,14.50
2022-09-17T12:02:48.202Z,14.60
2022-09-17T12:05:38.051Z,14.50
2022-09-17T12:08:15.090Z,14.70
2022-09-17T12:10:46.170Z,15.20
2022-09-17T12:13:26.862Z,15.70
2022-09-17T12:16:20.395Z,15.80
2022-09-17T12:19:17.489Z,15.80
2022-09-17T12:21:51.594Z,16.10
2022-09-17T12:24:28.831Z,16.70
2022-09-17T12:27:33.145Z,17.10
2022-09-17T12:30:17.227Z,17.20
2022-09-17T12:33:04.970Z,16.90
2022-09-17T12:36:06.149Z,16.50
2022-09-17T12:39:03.291Z,16.50
2022-09-17T12:41:49.257Z,16.00
2022-09-17T12:44:41.706Z,15.60
2022-09-17T12:47:35.575Z,15.40
2022-09-17T12:50:08.620Z,15.20
2022-09-17T12:52:57.580Z,15.00
2022-09-17T12:55:36.402Z,14.90
2022-09-17T12:58:27.880Z,14.60
2022-09-17T13:01:18.221Z,14.30
2022-09-17T13:04:43.577Z,14.00
2022-09-17T13:07:31.726Z,13.50
2022-09-17T13:10:30.768Z,13.20
2022-09-17T13:13:09.567Z,12.90
2022-09-17T13:15:57.269Z,12.70
2022-09-17T13:18:59.481Z,12.50
2022-09-17T13:21:41.434Z,12.50
2022-09-17T13:24:21.680Z,12.90
2022-09-17T13:26:49.771Z,13.20
2022-09-17T13:29:46.122Z,13.40
2022-09-17T13:32:39.749Z,13.40
2022-09-17T13:35:09.764Z,13.50
2022-09-17T13:37:54.388Z,13.40
2022-09-17T13:40:35.163Z,14.30
2022-09-17T13:43:12.288Z,16.80
2022-09-17T13:46:01.095Z,18.90
2022-09-17T13:48:31.778Z,21.00
2022-09-17T13:51:30.328Z,21.60
2022-09-17T13:54:00.578Z,22.40
2022-09-17T13:56:45.347Z,23.20
2022-09-17T13:59:25.500Z,24.10
2022-09-17T14:02:28.663Z,24.60
2022-09-17T14:05:26.356Z,25.40
2022-09-17T14:08:13.101Z,26.00
2022-09-17T14:10:44.874Z,25.80
2022-09-17T14:13:45.405Z,25.80
2022-09-17T14:16:42.585Z,25.50
2022-09-17T14:19:39.786Z,24.40
2022-09-17T14:22:22.206Z,22.60
2022-09-17T14:24:52.567Z,21.10
2022-09-17T14:27:42.219Z,20.10
2022-09-17T14:30:22.596Z,18.80
2022-09-17T14:32:57.731Z,17.50
2022-09-17T14:35:41.172Z,15.70
2022-09-17T14:38:14.021Z,14.40
2022-09-17T14:40:46.287Z,13.80
2022-09-17T14:43:48.449Z,13.20
2022-09-17T14:46:22.083Z,12.90
2022-09-17T14:48:50.689Z,12.70
2022-09-17T14:51:17.493Z,12.60
2022-09-17T14:53:48.318Z,12.50
2022-09-17T14:56:22.395Z,12.60
2022-09-17T14:58:52.799Z,13.10
2022-09-17T15:01:25.023Z,13.50
2022-09-17T15:04:21.345Z,13.90
2022-09-17T15:06:48.316Z,14.00
2022-09-17T15:09:23.908Z,13.90
2022-09-17T15:11:55.641Z,13.90
2022-09-17T15:14:31.881Z,13.90
2022-09-17T15:17:02.979Z,13.80
2022-09-17T15:19:33.574Z,13.70
2022-09-17T15:22:18.321Z,13.70
2022-09-17T15:24:56.525Z,13.70
2022-09-17T15:27:39.145Z,13.80
2022-09-17T15:30:18.108Z,13.90
2022-09-17T15:32:56.744Z,14.10
2022-09-17T15:35:30.288Z,14.10
2022-09-17T15:38:24.430Z,14.20
2022-09-17T15:40:51.829Z,14.20
2022-09-17T15:43:31.696Z,14.10
2022-09-17T15:46:26.868Z,13.90
2022-09-17T15:49:38.114Z,13.90
2022-09-17T15:52:31.728Z,13.80
2022-09-17T15:55:00.247Z,13.80
2022-09-17T15:57:30.326Z,13.90
2022-09-17T16:00:08.806Z,13.90
2022-09-17T16:02:35.843Z,13.90
2022-09-17T16:05:17.819Z,13.90
2022-09-17T16:07:48.072Z,14.00
2022-09-17T16:10:16.142Z,14.20
2022-09-17T16:12:43.987Z,14.40
2022-09-17T16:15:13.045Z,14.40
2022-09-17T16:17:57.928Z,14.50
2022-09-17T16:20:25.922Z,14.70
2022-09-17T16:22:54.918Z,14.90
2022-09-17T16:25:28.413Z,14.80
2022-09-17T16:28:02.254Z,14.70
2022-09-17T16:30:29.364Z,14.60
2022-09-17T16:32:56.253Z,14.60
2022-09-17T16:35:25.806Z,14.40
2022-09-17T16:37:55.092Z,14.50
2022-09-17T16:40:24.123Z,14.30
2022-09-17T16:42:51.269Z,14.10
2022-09-17T16:45:18.091Z,14.00
2022-09-17T16:47:45.253Z,13.90
2022-09-17T16:50:15.408Z,13.90
2022-09-17T16:52:42.884Z,13.70
2022-09-17T16:55:10.458Z,13.50
2022-09-17T16:57:37.365Z,13.40
2022-09-17T17:00:06.472Z,13.50
2022-09-17T17:02:33.436Z,13.40
2022-09-17T17:05:00.356Z,13.30
2022-09-17T17:07:27.213Z,13.20
2022-09-17T17:09:54.075Z,13.10
2022-09-17T17:12:21.038Z,12.90
2022-09-17T17:14:50.172Z,12.80
2022-09-17T17:17:18.532Z,12.70
2022-09-17T17:19:46.648Z,12.60
2022-09-17T17:22:15.037Z,12.60
2022-09-17T17:24:42.629Z,12.50
2022-09-17T17:27:09.812Z,12.40
2022-09-17T17:29:37.171Z,12.30
2022-09-17T17:32:05.324Z,12.30
2022-09-17T17:34:32.415Z,12.30
2022-09-17T17:36:59.526Z,12.30
2022-09-17T17:39:26.683Z,12.30
2022-09-17T17:41:55.827Z,12.40
2022-09-17T17:44:22.792Z,12.30
2022-09-17T17:46:49.713Z,12.30
2022-09-17T17:49:17.050Z,12.40
2022-09-17T17:51:45.045Z,12.40
2022-09-17T17:54:11.876Z,12.50
2022-09-17T17:56:38.693Z,12.50
2022-09-17T17:59:06.359Z,12.40
2022-09-17T18:01:35.378Z,12.30
2022-09-17T18:04:05.515Z,12.20
2022-09-17T18:06:32.991Z,12.20
2022-09-17T18:09:01.592Z,12.20
2022-09-17T18:11:28.925Z,12.10
2022-09-17T18:13:56.868Z,12.10
2022-09-17T18:16:24.625Z,12.10
2022-09-17T18:18:51.547Z,12.10
2022-09-17T18:21:21.580Z,12.10
2022-09-17T18:23:49.241Z,12.10
2022-09-17T18:26:22.967Z,12.10
2022-09-17T18:28:51.163Z,12.10
2022-09-17T18:31:22.929Z,12.20
2022-09-17T18:33:58.835Z,12.20
2022-09-17T18:36:29.444Z,12.20
2022-09-17T18:39:16.689Z,12.20
2022-09-17T18:41:48.436Z,12.20
2022-09-17T18:44:15.510Z,12.30
2022-09-17T18:46:42.771Z,12.30
2022-09-17T18:49:09.790Z,12.30
2022-09-17T18:51:37.911Z,12.30
2022-09-17T18:54:04.929Z,12.20
2022-09-17T18:56:36.147Z,12.20
2022-09-17T18:59:07.983Z,12.20
2022-09-17T19:01:35.529Z,12.20
2022-09-17T19:04:03.252Z,12.10
2022-09-17T19:06:32.510Z,12.10
2022-09-17T19:09:05.417Z,12.10
2022-09-17T19:11:34.235Z,12.10
2022-09-17T19:14:01.847Z,12.10
2022-09-17T19:16:30.676Z,12.00
2022-09-17T19:18:58.355Z,12.10
2022-09-17T19:21:25.259Z,12.10
2022-09-17T19:23:52.692Z,12.20
2022-09-17T19:26:25.433Z,12.10
2022-09-17T19:28:57.907Z,12.10
2022-09-17T19:31:25.402Z,12.10
2022-09-17T19:33:52.856Z,12.00
2022-09-17T19:36:20.419Z,12.00
2022-09-17T19:38:48.143Z,11.90
2022-09-17T19:41:17.562Z,12.00
2022-09-17T19:43:47.933Z,12.00
2022-09-17T19:46:18.116Z,12.00
2022-09-17T19:48:50.508Z,12.00
2022-09-17T19:51:18.996Z,12.00
2022-09-17T19:53:46.288Z,12.00
2022-09-17T19:56:15.936Z,12.00
2022-09-17T19:58:43.521Z,12.00
2022-09-17T20:01:11.512Z,11.90
2022-09-17T20:03:39.277Z,12.00
2022-09-17T20:06:09.629Z,11.90
2022-09-17T20:08:41.608Z,11.90
2022-09-17T20:11:12.218Z,11.90
2022-09-17T20:13:39.231Z,11.90
2022-09-17T20:16:13.856Z,11.90
2022-09-17T20:18:41.315Z,11.80
2022-09-17T20:21:09.533Z,11.80
2022-09-17T20:23:36.487Z,11.90
2022-09-17T20:26:04.860Z,12.00
2022-09-17T20:28:32.408Z,12.00
2022-09-17T20:31:08.845Z,12.00
2022-09-17T20:33:35.824Z,11.90
2022-09-17T20:36:05.603Z,11.90
2022-09-17T20:39:10.143Z,12.00
2022-09-17T20:41:21.364Z,11.90
2022-09-17T20:43:50.609Z,11.90
2022-09-17T20:46:18.705Z,11.90
2022-09-17T20:48:45.837Z,11.90
2022-09-17T20:51:18.270Z,11.90
2022-09-17T20:53:46.223Z,11.80
2022-09-17T20:56:15.936Z,11.90
2022-09-17T20:58:48.481Z,11.90
2022-09-17T21:01:20.603Z,11.80
2022-09-17T21:03:50.254Z,11.90
2022-09-17T21:06:24.039Z,12.00
2022-09-17T21:08:52.251Z,11.90
2022-09-17T21:11:21.469Z,12.00
2022-09-17T21:13:48.400Z,12.00
2022-09-17T21:16:16.161Z,12.00
2022-09-17T21:18:43.716Z,12.00
2022-09-17T21:21:16.607Z,12.00
2022-09-17T21:23:44.006Z,11.90
2022-09-17T21:26:14.785Z,11.90
2022-09-17T21:28:43.783Z,11.90
2022-09-17T21:31:13.757Z,11.80
2022-09-17T21:33:41.865Z,11.80
2022-09-17T21:36:14.305Z,11.70
2022-09-17T21:38:41.755Z,11.70
2022-09-17T21:41:13.951Z,11.80
2022-09-17T21:43:41.966Z,11.80
2022-09-17T21:46:21.529Z,11.80
2022-09-17T21:48:50.887Z,11.80
2022-09-17T21:51:23.580Z,11.80
2022-09-17T21:53:52.322Z,11.70
2022-09-17T21:56:20.143Z,11.80
2022-09-17T21:58:51.407Z,11.80
2022-09-17T22:01:20.698Z,11.70
2022-09-17T22:03:48.073Z,11.70
2022-09-17T22:06:18.615Z,11.80
2022-09-17T22:08:46.502Z,11.90
2022-09-17T22:11:22.178Z,11.90
2022-09-17T22:13:55.330Z,11.90
2022-09-17T22:16:24.132Z,11.90
2022-09-17T22:18:52.108Z,11.90
2022-09-17T22:21:24.693Z,12.00
2022-09-17T22:23:53.746Z,12.00
2022-09-17T22:26:22.763Z,11.90
2022-09-17T22:28:50.427Z,12.00
2022-09-17T22:31:18.440Z,12.00
2022-09-17T22:33:47.695Z,12.00
2022-09-17T22:36:17.745Z,11.90
2022-09-17T22:38:50.557Z,11.90
2022-09-17T22:41:19.652Z,11.90
2022-09-17T22:43:47.144Z,11.90
2022-09-17T22:46:19.523Z,11.90
2022-09-17T22:48:47.232Z,11.90
2022-09-17T22:51:14.993Z,11.90
2022-09-17T22:53:43.142Z,11.80
2022-09-17T22:56:13.438Z,11.80
2022-09-17T22:58:40.609Z,11.70
2022-09-17T23:01:11.330Z,11.70
2022-09-17T23:03:38.991Z,11.70
2022-09-17T23:06:08.836Z,11.60
2022-09-17T23:08:36.553Z,11.60
2022-09-17T23:11:05.220Z,11.70
2022-09-17T23:13:32.734Z,11.70
2022-09-17T23:16:08.107Z,11.70
2022-09-17T23:18:36.089Z,11.60
2022-09-17T23:21:09.391Z,11.60
2022-09-17T23:23:37.428Z,11.50
2022-09-17T23:26:06.636Z,11.50
2022-09-17T23:28:35.129Z,11.50
2022-09-17T23:31:21.795Z,11.40
2022-09-17T23:33:49.595Z,11.40
2022-09-17T23:36:20.093Z,11.40
2022-09-17T23:38:48.404Z,11.30
2022-09-17T23:41:25.847Z,11.30
2022-09-17T23:43:58.081Z,11.30
2022-09-17T23:46:26.517Z,11.40
2022-09-17T23:48:53.714Z,11.40
2022-09-17T23:51:22.273Z,11.30
2022-09-17T23:53:49.346Z,11.30
2022-09-17T23:56:23.943Z,11.30
2022-09-17T23:58:52.156Z,11.30
